Time;durP1;ratioP1;P1;durP2;ratioP2;P2;SDS_P1;SDS_P2;PMS_P1;PMS_P2;Temp;Humidity;BMP_temperature;BMP_pressure;BME280_temperature;BME280_humidity;BME280_pressure;Samples;Min_cycle;Max_cycle;Signal;HPM_P1;HPM_P2
2022/03/24 00:00:40;;;;;;;;;54.75;41.25;;;;;13.80;35.90;102172.06;5057223;28;45519;-59
2022/03/24 00:03:06;;;;;;;;;51.75;41.25;;;;;13.74;36.05;102171.44;5058414;28;46105;-56
2022/03/24 00:05:32;;;;;;;;;47.75;38.75;;;;;13.70;35.73;102173.41;5042702;28;45449;-56
2022/03/24 00:07:58;;;;;;;;;52.25;42.00;;;;;13.69;35.96;102177.00;5052551;28;45305;-57
2022/03/24 00:10:24;;;;;;;;;51.25;40.75;;;;;13.66;35.75;102177.13;5031348;28;45363;-59
2022/03/24 00:12:51;;;;;;;;;53.75;40.50;;;;;13.59;36.06;102175.66;5036993;28;47785;-59
2022/03/24 00:15:17;;;;;;;;;52.75;42.00;;;;;13.60;35.67;102179.22;5057451;28;45224;-58
2022/03/24 00:17:43;;;;;;;;;55.00;41.75;;;;;13.55;35.79;102174.06;5037981;28;45506;-57
2022/03/24 00:20:11;;;;;;;;;42.75;38.00;;;;;13.55;35.66;102180.28;5057406;28;45269;-59
2022/03/24 00:22:37;;;;;;;;;45.25;37.75;;;;;13.54;35.68;102164.28;5049590;28;46161;-59
2022/03/24 00:25:03;;;;;;;;;43.50;37.75;;;;;13.59;35.19;102173.00;5039573;28;45495;-57
2022/03/24 00:27:28;;;;;;;;;41.25;31.00;;;;;13.62;35.35;102166.63;5047729;28;45337;-62
2022/03/24 00:29:54;;;;;;;;;52.50;41.50;;;;;13.67;35.41;102165.53;5058394;28;45468;-56
2022/03/24 00:32:19;;;;;;;;;54.00;42.25;;;;;13.53;35.25;102138.50;5034702;28;47632;-59
2022/03/24 00:34:45;;;;;;;;;51.00;40.00;;;;;13.66;34.72;102160.22;5038217;28;45507;-56
2022/03/24 00:37:11;;;;;;;;;49.00;38.75;;;;;13.61;34.81;102154.22;5050466;28;45394;-56
2022/03/24 00:39:36;;;;;;;;;56.50;41.75;;;;;13.61;35.22;102151.53;5058141;28;45400;-57
2022/03/24 00:42:07;;;;;;;;;58.00;44.00;;;;;13.56;34.79;102144.59;5055853;28;46382;-55
2022/03/24 00:44:32;;;;;;;;;55.75;41.50;;;;;13.56;35.18;102154.41;5059204;28;45436;-58
2022/03/24 00:46:58;;;;;;;;;52.50;43.25;;;;;13.61;35.44;102155.06;5031777;28;45533;-60
2022/03/24 00:49:25;;;;;;;;;55.25;42.25;;;;;13.61;35.33;102157.75;5039845;28;45376;-57
2022/03/24 00:51:50;;;;;;;;;53.25;45.50;;;;;13.53;34.79;102144.72;5058448;28;45443;-57
2022/03/24 00:54:18;;;;;;;;;51.50;43.75;;;;;13.53;34.94;102144.72;5056719;28;45269;-55
2022/03/24 00:56:46;;;;;;;;;56.00;43.75;;;;;13.55;35.10;102156.22;5022769;28;45598;-57
2022/03/24 00:59:12;;;;;;;;;48.75;41.50;;;;;13.55;35.38;102158.91;5028565;28;45410;-55
2022/03/24 01:01:39;;;;;;;;;55.25;42.50;;;;;13.56;35.67;102155.28;5052897;28;45512;-56
2022/03/24 01:04:06;;;;;;;;;53.25;44.50;;;;;13.54;35.68;102151.81;5040127;28;45326;-57
2022/03/24 01:06:32;;;;;;;;;50.50;41.25;;;;;13.51;34.82;102146.59;5045367;28;45223;-59
2022/03/24 01:08:58;;;;;;;;;56.25;46.00;;;;;13.48;35.66;102152.06;5057924;28;45522;-56
2022/03/24 01:11:24;;;;;;;;;62.00;44.75;;;;;13.47;35.01;102150.34;5053885;28;46018;-56
2022/03/24 01:13:49;;;;;;;;;52.50;41.25;;;;;13.45;35.06;102151.34;5043363;28;45507;-60
2022/03/24 01:16:15;;;;;;;;;56.25;42.25;;;;;13.36;35.16;102128.53;5037419;28;45245;-59
2022/03/24 01:18:40;;;;;;;;;55.50;42.25;;;;;13.45;36.24;102146.88;5047700;28;45566;-57
2022/03/24 01:21:07;;;;;;;;;53.75;43.00;;;;;13.43;35.40;102139.84;5043129;28;46097;-60
2022/03/24 01:23:34;;;;;;;;;50.00;41.50;;;;;13.39;35.78;102139.09;5048399;28;45434;-58
2022/03/24 01:26:00;;;;;;;;;52.50;40.25;;;;;13.40;35.67;102138.16;5053556;28;45295;-58
2022/03/24 01:28:27;;;;;;;;;47.50;40.00;;;;;13.38;35.86;102136.50;5051071;28;45435;-57
2022/03/24 01:30:53;;;;;;;;;52.75;41.75;;;;;13.41;35.90;102139.94;5043438;28;45267;-57
2022/03/24 01:33:19;;;;;;;;;47.00;39.50;;;;;13.39;35.64;102131.09;5037118;28;45323;-58
2022/03/24 01:35:44;;;;;;;;;48.75;40.50;;;;;13.40;35.73;102130.13;5053354;28;45548;-58
2022/03/24 01:38:10;;;;;;;;;46.25;34.50;;;;;13.42;35.30;102133.66;5055932;28;45741;-57
2022/03/24 01:40:35;;;;;;;;;47.50;40.50;;;;;13.23;35.40;102114.84;5056506;28;46509;-55
2022/03/24 01:43:00;;;;;;;;;51.50;39.00;;;;;13.27;35.84;102134.28;5056516;28;45339;-55
2022/03/24 01:45:26;;;;;;;;;49.25;39.75;;;;;13.28;35.95;102123.56;5056214;28;45451;-56
2022/03/24 01:47:53;;;;;;;;;49.75;41.75;;;;;13.30;36.50;102131.50;5047660;28;45549;-55
2022/03/24 01:50:18;;;;;;;;;55.50;41.75;;;;;13.28;36.38;102120.88;5039098;28;45420;-57
2022/03/24 01:52:44;;;;;;;;;47.25;40.50;;;;;13.21;36.27;102102.50;5022671;28;45463;-58
2022/03/24 01:55:11;;;;;;;;;52.75;41.50;;;;;13.29;36.03;102127.09;5045893;28;45419;-56
2022/03/24 01:57:39;;;;;;;;;54.25;42.75;;;;;13.26;35.80;102121.84;5027945;28;45611;-56
2022/03/24 02:00:06;;;;;;;;;49.50;41.00;;;;;13.13;36.65;102104.59;5030948;28;46802;-57
2022/03/24 02:02:32;;;;;;;;;56.75;42.25;;;;;13.23;36.56;102113.97;5055765;28;45345;-58
2022/03/24 02:04:57;;;;;;;;;50.25;41.75;;;;;13.22;36.94;102122.94;5048836;28;45364;-61
2022/03/24 02:07:23;;;;;;;;;54.00;42.50;;;;;13.24;37.17;102126.41;5054210;28;45479;-57
2022/03/24 02:09:48;;;;;;;;;51.25;41.50;;;;;13.12;36.63;102100.19;5049843;28;46129;-57
2022/03/24 02:12:14;;;;;;;;;52.75;42.25;;;;;13.21;36.70;102115.84;5042862;28;45505;-58
2022/03/24 02:14:40;;;;;;;;;53.25;40.75;;;;;13.13;37.07;102115.25;5046954;28;45514;-55
2022/03/24 02:17:06;;;;;;;;;42.50;36.75;;;;;13.14;36.64;102125.00;5048632;28;45415;-56
2022/03/24 02:19:33;;;;;;;;;47.50;39.00;;;;;13.07;36.84;102104.84;5055181;28;45264;-56
2022/03/24 02:22:17;;;;;;;;;54.50;44.00;;;;;13.11;36.51;102117.13;5056691;28;45279;-56
2022/03/24 02:24:43;;;;;;;;;54.50;42.75;;;;;13.12;37.29;102116.19;5055666;28;45966;-55
2022/03/24 02:27:10;;;;;;;;;40.75;38.00;;;;;13.05;37.00;102115.59;5054749;28;45221;-55
2022/03/24 02:29:36;;;;;;;;;46.25;40.50;;;;;13.09;37.57;102113.66;5056411;28;45469;-56
2022/03/24 02:32:07;;;;;;;;;55.25;42.50;;;;;13.05;37.53;102115.59;5036723;28;46144;-57
2022/03/24 02:34:37;;;;;;;;;48.50;38.00;;;;;13.02;37.04;102110.41;5052919;28;45334;-55
2022/03/24 02:37:08;;;;;;;;;58.75;46.50;;;;;13.00;36.75;102112.25;5044978;28;45395;-53
2022/03/24 02:39:35;;;;;;;;;46.25;41.00;;;;;12.97;37.27;102121.25;5054921;28;46283;-58
2022/03/24 02:42:01;;;;;;;;;51.25;40.25;;;;;12.92;37.69;102101.91;5045567;28;45321;-55
2022/03/24 02:44:30;;;;;;;;;54.00;42.25;;;;;12.97;37.29;102112.38;5019008;28;45817;-57
2022/03/24 02:46:57;;;;;;;;;48.25;40.50;;;;;12.94;37.38;102113.38;5042945;28;45538;-58
2022/03/24 02:49:25;;;;;;;;;52.75;39.75;;;;;12.90;36.96;102118.94;5054862;28;45319;-57
2022/03/24 02:51:53;;;;;;;;;53.25;39.75;;;;;12.76;37.31;102111.47;5054703;28;45418;-56
2022/03/24 02:54:20;;;;;;;;;51.25;40.00;;;;;12.81;37.75;102120.16;5054435;28;45424;-56
2022/03/24 02:56:46;;;;;;;;;41.75;36.25;;;;;12.70;37.04;102101.03;5056095;28;45402;-57
2022/03/24 02:59:12;;;;;;;;;46.50;39.25;;;;;12.63;37.64;102104.88;5052409;28;45430;-55
2022/03/24 03:01:41;;;;;;;;;44.00;37.75;;;;;12.53;37.82;102111.53;5050159;28;45596;-57
2022/03/24 03:04:07;;;;;;;;;47.75;37.25;;;;;12.58;38.13;102120.22;5056114;28;45290;-57
2022/03/24 03:06:33;;;;;;;;;43.75;39.00;;;;;12.61;38.33;102114.75;5049744;28;45422;-56
2022/03/24 03:09:00;;;;;;;;;48.00;40.00;;;;;12.61;37.88;102118.28;5048277;28;45409;-56
2022/03/24 03:11:25;;;;;;;;;47.75;42.00;;;;;12.61;37.77;102112.09;5053345;28;45512;-56
2022/03/24 03:13:52;;;;;;;;;46.25;38.50;;;;;12.63;38.11;102126.22;5036480;28;45998;-55
2022/03/24 03:16:18;;;;;;;;;42.75;36.25;;;;;12.60;38.32;102113.00;5032618;28;45540;-58
2022/03/24 03:18:44;;;;;;;;;48.25;38.25;;;;;12.62;37.81;102111.16;5053832;28;46276;-55
2022/03/24 03:21:09;;;;;;;;;42.75;39.00;;;;;12.58;38.35;102112.22;5055852;28;45410;-56
2022/03/24 03:23:38;;;;;;;;;44.75;37.00;;;;;12.63;38.17;102120.88;5055428;28;45435;-56
2022/03/24 03:26:07;;;;;;;;;43.50;39.00;;;;;12.43;38.64;102084.34;5041533;28;45486;-56
2022/03/24 03:28:33;;;;;;;;;39.75;36.50;;;;;12.63;38.05;102123.56;5036529;28;46885;-55
2022/03/24 03:30:59;;;;;;;;;46.00;36.75;;;;;12.47;38.13;102106.44;5017886;28;45353;-55
2022/03/24 03:33:24;;;;;;;;;43.00;37.75;;;;;12.53;38.01;102128.41;5030305;28;45557;-60
2022/03/24 03:35:52;;;;;;;;;44.75;36.50;;;;;12.45;38.35;102119.84;5043291;28;45351;-59
2022/03/24 03:38:18;;;;;;;;;44.00;39.00;;;;;12.39;38.39;102115.63;5035513;28;46078;-53
2022/03/24 03:40:44;;;;;;;;;43.25;36.00;;;;;12.44;37.94;102123.44;5035633;28;45399;-55
2022/03/24 03:43:10;;;;;;;;;42.50;36.75;;;;;12.35;39.01;102122.00;5038011;28;45730;-55
2022/03/24 03:45:36;;;;;;;;;35.75;31.25;;;;;12.39;38.61;102126.31;5050402;28;45660;-57
2022/03/24 03:48:02;;;;;;;;;51.75;41.50;;;;;12.40;38.00;102128.03;5051047;28;45671;-56
2022/03/24 03:50:28;;;;;;;;;53.25;39.75;;;;;12.29;38.22;102116.91;5037150;28;45272;-56
2022/03/24 03:52:54;;;;;;;;;43.50;37.00;;;;;12.29;38.31;102113.38;5034161;28;45517;-56
2022/03/24 03:55:20;;;;;;;;;44.50;38.25;;;;;12.25;38.62;102117.97;5056028;28;45615;-54
2022/03/24 03:57:46;;;;;;;;;50.00;39.00;;;;;12.27;39.10;102121.44;5039975;28;46327;-56
2022/03/24 04:02:57;;;;;;;;;37.75;30.75;;;;;12.31;39.01;102111.50;5048464;28;45612;-58
2022/03/24 04:05:25;;;;;;;;;52.50;39.50;;;;;12.22;38.85;102101.19;5054692;28;45368;-57
2022/03/24 04:07:51;;;;;;;;;44.50;40.50;;;;;12.21;38.36;102113.66;5039406;28;47519;-57
2022/03/24 04:10:17;;;;;;;;;44.50;38.25;;;;;12.14;39.28;102109.50;5049782;28;45436;-55
2022/03/24 04:12:46;;;;;;;;;44.25;40.00;;;;;12.16;38.81;102118.31;5029415;28;45531;-55
2022/03/24 04:15:11;;;;;;;;;45.50;38.00;;;;;11.99;39.03;102118.09;5047407;28;45636;-55
2022/03/24 04:17:37;;;;;;;;;52.00;41.00;;;;;11.86;39.05;102122.16;5049869;28;45371;-55
2022/03/24 04:20:03;;;;;;;;;45.50;36.25;;;;;11.71;39.26;102121.72;5040498;28;45481;-56
2022/03/24 04:22:29;;;;;;;;;45.75;37.50;;;;;11.61;39.96;102120.34;5056388;28;45410;-56
2022/03/24 04:24:54;;;;;;;;;45.00;40.00;;;;;11.52;40.24;102121.53;5054062;28;45437;-57
2022/03/24 04:27:19;;;;;;;;;56.75;41.75;;;;;11.50;40.09;102127.84;5044171;28;45466;-55
2022/03/24 04:29:45;;;;;;;;;48.25;36.00;;;;;11.48;41.01;102125.22;5058277;28;45346;-56
2022/03/24 04:32:10;;;;;;;;;51.25;41.00;;;;;11.43;40.40;102107.66;5037623;28;45360;-54
2022/03/24 04:34:36;;;;;;;;;46.50;38.25;;;;;11.40;40.65;102111.31;5039278;28;45419;-57
2022/03/24 04:37:02;;;;;;;;;48.00;40.00;;;;;11.55;40.54;102115.22;5057095;28;45236;-54
2022/03/24 04:39:29;;;;;;;;;47.50;41.00;;;;;11.63;40.81;102112.28;5038963;28;45466;-56
2022/03/24 04:41:55;;;;;;;;;43.25;38.25;;;;;11.65;40.93;102113.97;5041333;28;45470;-58
2022/03/24 04:44:22;;;;;;;;;50.00;40.25;;;;;11.70;40.26;102117.31;5026705;28;45324;-57
2022/03/24 04:46:47;;;;;;;;;55.00;39.25;;;;;11.74;40.89;102118.97;5038581;28;45544;-56
2022/03/24 04:49:13;;;;;;;;;47.50;40.75;;;;;11.78;40.46;102115.25;5052698;28;45435;-57
2022/03/24 04:51:38;;;;;;;;;49.25;38.75;;;;;11.72;40.41;102107.50;5056387;28;45422;-56
2022/03/24 04:54:04;;;;;;;;;48.00;37.00;;;;;11.79;40.40;102117.03;5058380;28;45547;-57
2022/03/24 04:56:29;;;;;;;;;52.25;40.75;;;;;11.75;40.15;102117.16;5052327;28;45535;-57
2022/03/24 04:58:55;;;;;;;;;52.00;42.25;;;;;11.65;40.27;102100.63;5046279;28;45465;-57
2022/03/24 05:01:20;;;;;;;;;49.25;37.75;;;;;11.70;40.59;102109.31;5050141;28;45885;-55
2022/03/24 05:03:48;;;;;;;;;44.50;39.00;;;;;11.72;40.63;102107.50;5051919;28;45523;-56
2022/03/24 05:06:14;;;;;;;;;46.25;34.50;;;;;11.76;40.32;102108.25;5037585;28;46007;-56
2022/03/24 05:08:39;;;;;;;;;44.25;36.25;;;;;11.72;40.55;102096.84;5043083;28;45423;-57
2022/03/24 05:11:05;;;;;;;;;45.00;39.25;;;;;11.82;40.41;102108.91;5057931;28;45354;-57
2022/03/24 05:13:30;;;;;;;;;44.00;38.50;;;;;11.82;39.74;102119.56;5045687;28;45610;-57
2022/03/24 05:15:56;;;;;;;;;45.50;39.00;;;;;11.68;40.08;102118.31;5051628;28;46161;-57
2022/03/24 05:18:24;;;;;;;;;47.75;39.00;;;;;11.71;41.04;102115.53;5047887;28;45575;-56
2022/03/24 05:20:50;;;;;;;;;40.25;37.25;;;;;11.75;41.25;102122.50;5057236;28;45434;-57
2022/03/24 05:23:16;;;;;;;;;45.75;38.50;;;;;11.79;40.70;102111.69;5038483;28;45471;-57
2022/03/24 05:25:43;;;;;;;;;44.50;38.25;;;;;11.74;40.65;102121.63;5049041;28;46075;-56
2022/03/24 05:28:09;;;;;;;;;40.75;37.00;;;;;11.77;40.88;102116.19;5052553;28;45466;-56
2022/03/24 05:30:36;;;;;;;;;44.75;39.25;;;;;11.79;40.83;102122.34;5046820;28;45239;-57
2022/03/24 05:33:02;;;;;;;;;39.50;38.00;;;;;11.75;40.72;102123.38;5051260;28;45705;-56
2022/03/24 05:35:29;;;;;;;;;39.25;33.25;;;;;11.79;40.77;102124.16;5037585;28;48043;-58
2022/03/24 05:37:55;;;;;;;;;49.75;38.50;;;;;11.82;40.79;102124.03;5033750;28;45583;-56
2022/03/24 05:40:21;;;;;;;;;44.75;36.50;;;;;11.79;40.81;102124.16;5041432;28;45350;-57
2022/03/24 05:42:46;;;;;;;;;44.00;36.50;;;;;11.80;40.51;102109.88;5038268;28;45363;-55
2022/03/24 05:45:13;;;;;;;;;47.00;38.00;;;;;11.71;40.80;102111.06;5053217;28;45472;-55
2022/03/24 05:47:38;;;;;;;;;45.00;37.00;;;;;11.70;40.52;102114.66;5054050;28;45536;-55
2022/03/24 05:50:04;;;;;;;;;52.00;39.25;;;;;11.72;40.55;102123.47;5042056;28;45340;-55
2022/03/24 05:52:30;;;;;;;;;41.50;37.25;;;;;11.73;41.02;102119.91;5022573;28;45696;-57
2022/03/24 05:54:55;;;;;;;;;43.25;39.50;;;;;11.65;40.36;102110.44;5041799;28;45584;-55
2022/03/24 05:57:20;;;;;;;;;41.75;35.50;;;;;11.69;41.14;102123.56;5042058;28;45447;-56
2022/03/24 05:59:46;;;;;;;;;47.50;39.00;;;;;11.63;41.02;102113.16;5056831;28;45311;-56
2022/03/24 06:02:13;;;;;;;;;38.00;33.50;;;;;11.50;40.83;102091.41;5046866;28;45654;-55
2022/03/24 06:04:42;;;;;;;;;44.00;39.00;;;;;11.66;41.37;102118.34;5055697;28;46550;-56
2022/03/24 06:07:09;;;;;;;;;30.75;26.00;;;;;11.65;40.77;102126.41;5056197;28;45277;-59
2022/03/24 06:09:34;;;;;;;;;41.00;36.75;;;;;11.69;40.82;102136.91;5035885;28;45256;-57
2022/03/24 06:12:00;;;;;;;;;39.00;36.25;;;;;11.60;41.02;102120.41;5054250;28;45445;-56
2022/03/24 06:14:26;;;;;;;;;55.25;39.00;;;;;11.62;40.66;102135.41;5038132;28;47124;-55
2022/03/24 06:16:51;;;;;;;;;53.50;41.25;;;;;11.61;41.02;102133.66;5054124;28;45509;-57
2022/03/24 06:19:16;;;;;;;;;45.25;36.25;;;;;11.66;41.38;102133.47;5038162;28;45601;-59
2022/03/24 06:21:42;;;;;;;;;41.00;38.75;;;;;11.58;41.04;102115.09;5037671;28;45329;-59
2022/03/24 06:24:08;;;;;;;;;47.25;41.00;;;;;11.55;40.71;102115.22;5052490;28;45337;-58
2022/03/24 06:26:35;;;;;;;;;45.00;37.50;;;;;11.66;41.23;102126.34;5056211;28;45565;-57
2022/03/24 06:29:01;;;;;;;;;44.75;37.50;;;;;11.66;41.02;102137.00;5056249;28;45405;-56
2022/03/24 06:31:27;;;;;;;;;46.50;40.00;;;;;11.58;41.27;102123.09;5048869;28;45515;-55
2022/03/24 06:33:53;;;;;;;;;41.75;35.50;;;;;11.60;40.60;102126.59;5052530;28;46440;-55
2022/03/24 06:36:19;;;;;;;;;39.00;36.25;;;;;11.63;41.24;102137.13;5025866;28;45304;-54
2022/03/24 06:38:45;;;;;;;;;45.25;38.75;;;;;11.68;40.72;102135.16;5055498;28;45361;-56
2022/03/24 06:41:10;;;;;;;;;47.25;40.25;;;;;11.61;41.06;102114.13;5038789;28;45575;-57
2022/03/24 06:43:36;;;;;;;;;52.00;40.75;;;;;11.66;41.12;102122.81;5035413;28;45353;-57
2022/03/24 06:46:04;;;;;;;;;49.25;40.25;;;;;11.61;41.35;102109.69;5050924;28;45343;-58
2022/03/24 06:48:33;;;;;;;;;42.00;38.75;;;;;11.64;40.91;102112.22;5052208;28;45615;-59
2022/03/24 06:50:58;;;;;;;;;54.00;38.75;;;;;11.79;40.43;102143.69;5052884;28;46714;-57
2022/03/24 06:53:24;;;;;;;;;32.00;30.50;;;;;11.67;40.72;102141.41;5045035;28;45449;-56
2022/03/24 06:55:52;;;;;;;;;47.25;39.25;;;;;11.69;41.87;102144.88;5041236;28;45278;-58
2022/03/24 06:58:18;;;;;;;;;49.50;39.25;;;;;11.72;41.26;102147.47;5035387;28;45379;-57
2022/03/24 07:00:44;;;;;;;;;39.00;37.50;;;;;11.73;41.55;102138.56;5035206;28;45659;-57
2022/03/24 07:03:10;;;;;;;;;36.00;34.00;;;;;11.85;41.62;102145.25;5019512;28;45697;-58
2022/03/24 07:05:37;;;;;;;;;53.50;40.50;;;;;11.78;40.56;102133.91;5036042;28;45423;-57
2022/03/24 07:08:04;;;;;;;;;49.25;41.75;;;;;11.85;41.35;102145.25;5036724;28;45393;-58
2022/03/24 07:10:31;;;;;;;;;85.00;64.00;;;;;11.90;41.43;102148.63;5055607;28;45279;-60
2022/03/24 07:12:56;;;;;;;;;53.50;40.00;;;;;11.97;41.11;102154.59;5054745;28;47719;-58
2022/03/24 07:15:23;;;;;;;;;46.50;39.50;;;;;11.97;40.90;102154.59;5043165;28;45417;-64
2022/03/24 07:17:48;;;;;;;;;49.50;39.75;;;;;11.92;40.33;102156.56;5040045;28;45467;-60
2022/03/24 07:20:14;;;;;;;;;50.00;40.75;;;;;11.96;40.85;102158.19;5040469;28;45549;-59
2022/03/24 07:22:39;;;;;;;;;45.50;37.00;;;;;11.98;40.63;102158.97;5054348;28;45445;-58
2022/03/24 07:25:07;;;;;;;;;50.25;39.50;;;;;11.90;40.24;102147.75;5042185;28;45494;-52
2022/03/24 07:27:34;;;;;;;;;31.25;21.75;;;;;11.98;40.62;102162.56;5055424;28;45295;-61
2022/03/24 07:29:59;;;;;;;;;56.50;44.00;;;;;12.02;40.64;102157.97;5035710;28;45272;-60
2022/03/24 07:32:25;;;;;;;;;50.75;39.25;;;;;12.04;40.95;102158.78;5058797;28;45328;-58
2022/03/24 07:34:51;;;;;;;;;54.50;42.00;;;;;11.93;41.06;102136.97;5052156;28;46032;-59
2022/03/24 07:37:17;;;;;;;;;54.00;43.25;;;;;12.04;40.52;102156.97;5054264;28;45429;-59
2022/03/24 07:39:42;;;;;;;;;45.50;38.75;;;;;12.10;40.84;102159.41;5042012;28;45395;-57
2022/03/24 07:42:08;;;;;;;;;43.25;38.50;;;;;12.13;40.57;102158.44;5023863;28;47615;-58
2022/03/24 07:44:33;;;;;;;;;52.50;42.25;;;;;12.20;40.97;102167.06;5045156;28;45437;-59
2022/03/24 07:46:59;;;;;;;;;55.25;41.00;;;;;12.23;40.55;102170.47;5058782;28;45431;-57
2022/03/24 07:49:24;;;;;;;;;42.00;38.25;;;;;12.25;40.88;102171.31;5047718;28;45386;-58
2022/03/24 07:51:50;;;;;;;;;53.50;42.00;;;;;12.20;40.33;102165.25;5049286;28;46912;-57
2022/03/24 07:54:16;;;;;;;;;45.00;41.00;;;;;12.23;40.23;102172.28;5046391;28;45341;-57
2022/03/24 07:56:43;;;;;;;;;52.00;40.25;;;;;12.28;40.29;102181.00;5038204;28;45348;-60
2022/03/24 07:59:08;;;;;;;;;56.00;45.50;;;;;12.28;40.00;102176.53;5057820;28;45315;-57
2022/03/24 08:01:36;;;;;;;;;43.25;37.00;;;;;12.30;39.90;102174.66;5045222;28;45928;-57
2022/03/24 08:04:04;;;;;;;;;41.75;37.50;;;;;12.32;40.36;102172.81;5054325;28;45196;-58
2022/03/24 08:06:31;;;;;;;;;52.75;42.25;;;;;12.39;40.22;102177.00;5037012;28;45414;-61
2022/03/24 08:08:58;;;;;;;;;52.75;43.50;;;;;12.43;39.70;102179.53;5028821;28;45474;-58
2022/03/24 08:11:25;;;;;;;;;49.50;39.75;;;;;12.45;39.90;102183.88;5056580;28;47066;-58
2022/03/24 08:13:53;;;;;;;;;44.00;36.50;;;;;12.48;39.73;102172.22;5057507;28;46307;-57
2022/03/24 08:16:21;;;;;;;;;37.25;32.75;;;;;12.53;39.92;102181.78;5049659;28;45347;-58
2022/03/24 08:18:46;;;;;;;;;50.00;41.25;;;;;12.58;39.58;102181.59;5050737;28;45813;-58
2022/03/24 08:21:12;;;;;;;;;55.50;43.00;;;;;12.63;40.63;102183.19;5056482;28;46185;-57
2022/03/24 08:23:38;;;;;;;;;56.25;44.00;;;;;12.68;39.78;102185.66;5058044;28;45260;-57
2022/03/24 08:26:03;;;;;;;;;60.25;43.75;;;;;12.67;39.63;102176.78;5057193;28;45499;-57
2022/03/24 08:28:29;;;;;;;;;49.75;42.25;;;;;12.78;39.52;102175.50;5058164;28;45499;-62
2022/03/24 08:30:54;;;;;;;;;49.50;42.00;;;;;12.85;39.03;102177.84;5056901;28;45439;-59
2022/03/24 08:33:20;;;;;;;;;50.00;39.75;;;;;12.84;38.87;102173.44;5038094;28;45297;-58
2022/03/24 08:35:45;;;;;;;;;47.00;38.75;;;;;12.90;39.23;102170.53;5040607;28;45356;-58
2022/03/24 08:38:11;;;;;;;;;51.00;42.00;;;;;13.00;39.39;102189.69;5040480;28;45337;-63
2022/03/24 08:40:37;;;;;;;;;46.75;36.75;;;;;13.12;39.28;102193.66;5057155;28;45237;-58
2022/03/24 08:43:04;;;;;;;;;57.00;44.75;;;;;13.19;38.59;102192.53;5057578;28;45437;-61
2022/03/24 08:45:30;;;;;;;;;60.00;44.50;;;;;13.24;38.54;102190.53;5040991;28;45604;-59
2022/03/24 08:47:59;;;;;;;;;48.50;42.00;;;;;13.20;39.48;102178.22;5058066;28;45481;-57
2022/03/24 08:50:24;;;;;;;;;47.00;37.25;;;;;13.28;38.59;102170.75;5057750;28;45772;-58
2022/03/24 08:52:50;;;;;;;;;67.50;48.00;;;;;13.49;38.33;102188.56;5057513;28;45211;-58
2022/03/24 08:55:16;;;;;;;;;175.33;149.67;;;;;13.71;39.02;102184.97;5057651;28;45312;-57
2022/03/24 08:57:45;;;;;;;;;55.75;42.75;;;;;13.99;38.61;102182.78;5039948;28;45687;-59
2022/03/24 09:00:15;;;;;;;;;54.00;43.75;;;;;14.30;37.73;102194.75;5038670;28;46296;-59
2022/03/24 09:02:48;;;;;;;;;57.75;45.00;;;;;14.50;36.72;102192.06;5055534;28;45356;-58
2022/03/24 09:05:17;;;;;;;;;49.50;41.25;;;;;14.72;35.93;102182.09;5057270;28;45367;-60
2022/03/24 09:07:43;;;;;;;;;52.25;44.00;;;;;14.92;36.21;102189.13;5058004;28;45497;-58
2022/03/24 09:10:10;;;;;;;;;51.00;39.25;;;;;15.18;35.87;102189.66;5057218;28;45482;-55
2022/03/24 09:12:38;;;;;;;;;55.00;41.25;;;;;15.40;34.62;102189.47;5057252;28;45368;-57
2022/03/24 09:15:07;;;;;;;;;63.75;47.25;;;;;15.59;34.94;102195.59;5039040;28;45343;-60
2022/03/24 09:17:34;;;;;;;;;53.50;43.75;;;;;15.80;34.98;102194.53;5057742;28;45492;-58
2022/03/24 09:20:00;;;;;;;;;56.75;44.00;;;;;15.99;34.92;102182.81;5057784;28;45396;-56
2022/03/24 09:22:26;;;;;;;;;52.00;43.25;;;;;16.24;33.57;102188.59;5059375;28;45439;-59
2022/03/24 09:24:51;;;;;;;;;60.00;44.50;;;;;16.41;33.21;102191.25;5041025;28;45368;-61
2022/03/24 09:27:17;;;;;;;;;55.25;43.25;;;;;16.62;34.39;102185.63;5059295;28;45322;-59
2022/03/24 09:29:43;;;;;;;;;53.00;43.25;;;;;16.81;32.48;102178.28;5039007;28;48147;-62
2022/03/24 09:32:12;;;;;;;;;52.25;43.00;;;;;16.93;32.33;102182.09;5057873;28;45239;-57
2022/03/24 09:34:41;;;;;;;;;53.25;41.50;;;;;17.13;32.86;102178.25;5034978;28;45446;-60
2022/03/24 09:37:08;;;;;;;;;54.75;43.50;;;;;17.42;32.94;102173.84;5037536;28;45507;-59
2022/03/24 09:39:34;;;;;;;;;56.00;44.00;;;;;17.60;31.98;102181.69;5029241;28;45278;-58
2022/03/24 09:42:00;;;;;;;;;54.50;44.00;;;;;17.79;31.66;102177.91;5043987;28;45185;-56
2022/03/24 09:44:26;;;;;;;;;50.50;42.50;;;;;17.87;31.83;102171.09;5038380;28;45297;-60
2022/03/24 09:46:52;;;;;;;;;52.00;45.00;;;;;17.98;31.13;102181.19;5057542;28;45614;-57
2022/03/24 09:49:17;;;;;;;;;56.00;45.00;;;;;18.06;31.10;102170.81;5057195;28;45640;-57
2022/03/24 09:51:43;;;;;;;;;49.00;42.00;;;;;18.07;30.73;102168.97;5033715;28;45358;-60
2022/03/24 09:54:11;;;;;;;;;51.75;39.75;;;;;18.17;30.67;102173.69;5044595;28;45508;-58
2022/03/24 09:56:37;;;;;;;;;54.50;44.75;;;;;18.27;30.96;102169.47;5057323;28;45479;-59
2022/03/24 09:59:03;;;;;;;;;54.00;41.00;;;;;18.31;30.92;102174.66;5056728;28;45630;-59
2022/03/24 10:01:29;;;;;;;;;56.25;46.25;;;;;18.28;30.80;102162.25;5021617;28;45280;-58
2022/03/24 10:04:24;;;;;;;;;58.25;40.75;;;;;18.23;30.14;102167.94;5028625;28;45262;-60
2022/03/24 10:07:01;;;;;;;;;50.00;41.50;;;;;18.25;30.60;102165.16;5043533;28;45335;-58
2022/03/24 10:09:35;;;;;;;;;54.75;43.25;;;;;18.24;30.90;102169.66;5051721;28;45443;-60
2022/03/24 10:12:01;;;;;;;;;53.33;42.33;;;;;18.22;31.36;102159.94;5047884;28;45498;-61
2022/03/24 10:14:26;;;;;;;;;51.75;41.75;;;;;18.03;30.27;102153.97;5054129;28;45282;-58
2022/03/24 10:16:52;;;;;;;;;55.50;43.00;;;;;18.02;31.58;102163.03;5052692;28;45224;-59
2022/03/24 10:19:18;;;;;;;;;61.75;43.25;;;;;17.94;31.08;102155.41;5033149;28;47026;-57
2022/03/24 10:21:47;;;;;;;;;57.75;44.00;;;;;17.98;30.63;102156.97;5032627;28;45395;-60
2022/03/24 10:24:23;;;;;;;;;49.75;41.25;;;;;17.99;30.46;102158.69;5052405;28;45398;-60
2022/03/24 10:27:00;;;;;;;;;55.00;42.75;;;;;18.00;31.06;102160.44;5061439;28;45359;-59
2022/03/24 10:29:26;;;;;;;;;62.25;45.75;;;;;17.92;30.33;102143.88;5068491;28;46066;-60
2022/03/24 10:31:52;;;;;;;;;51.00;42.75;;;;;17.91;30.96;102144.84;5056449;28;45368;-61
2022/03/24 10:34:36;;;;;;;;;58.50;43.00;;;;;18.00;30.82;102160.44;5056362;28;45409;-58
2022/03/24 10:37:05;;;;;;;;;56.25;45.00;;;;;17.61;30.56;102088.38;5047592;28;45176;-61
2022/03/24 10:39:32;;;;;;;;;49.75;41.00;;;;;17.93;30.68;102153.69;5037898;28;45530;-59
2022/03/24 10:42:18;;;;;;;;;61.25;44.25;;;;;17.95;30.64;102146.38;5037678;28;45466;-59
2022/03/24 10:45:11;;;;;;;;;62.50;48.50;;;;;18.11;30.55;102147.16;5036220;28;45416;-59
2022/03/24 10:47:54;;;;;;;;;49.75;39.50;;;;;18.21;30.51;102152.81;5017846;28;45714;-59
2022/03/24 10:50:39;;;;;;;;;52.75;44.25;;;;;18.26;29.98;102135.41;5025620;28;47807;-59
2022/03/24 10:53:11;;;;;;;;;52.50;43.00;;;;;18.43;29.83;102146.94;5055899;28;45468;-59
2022/03/24 10:55:51;;;;;;;;;52.50;41.00;;;;;18.49;30.48;102141.13;5043197;28;45287;-60
2022/03/24 10:58:19;;;;;;;;;56.25;43.25;;;;;18.56;29.87;102142.47;5051581;28;45639;-58
2022/03/24 11:00:47;;;;;;;;;56.00;43.50;;;;;18.54;29.44;102144.41;5049881;28;46254;-58
2022/03/24 11:03:15;;;;;;;;;52.25;42.25;;;;;18.58;29.48;102140.53;5039851;28;45336;-57
2022/03/24 11:05:41;;;;;;;;;50.00;38.00;;;;;18.67;29.95;102141.81;5059241;28;45748;-59
2022/03/24 11:08:09;;;;;;;;;50.50;39.50;;;;;18.82;29.27;102141.66;5059522;28;45661;-58
2022/03/24 11:10:47;;;;;;;;;50.00;41.25;;;;;18.82;29.37;102130.88;5041410;28;45370;-63